Terminal Aerodrome Forecast
Issued by NWS Sioux Falls, SD

Home | Current Version | Previous Version | Text Only | Print | Product List | Glossary On
Versions: 1 2 3 4 5 6 7 8 9 10 11 12 13 14 15 16 17 18 19 20 21
000
FTUS43 KFSD 230529
TAFHON
TAF
KHON 230529Z 2306/2406 01006KT 1SM BR OVC003
      TEMPO 2306/2308 2SM -SN OVC006
     FM230800 36010KT 3SM -SN OVC005
      TEMPO 2308/2312 1SM -SN OVC003
     FM231500 34018G25KT 4SM -SN OVC007
     FM231900 33020G28KT P6SM OVC015
     FM240200 32014KT P6SM OVC025=

USA.gov is the U.S. government's official web portal to all federal, state and local government web resources and services.